Time;durP1;ratioP1;P1;durP2;ratioP2;P2;SDS_P1;SDS_P2;PMS_P1;PMS_P2;Temp;Humidity;BMP_temperature;BMP_pressure;BME280_temperature;BME280_humidity;BME280_pressure;Samples;Min_cycle;Max_cycle;Signal;HPM_P1;HPM_P2
2021/06/21 00:01:51;;;;;;;1.30;1.10;;;24.60;60.40;;;;;;5033088;28;20472;-45
2021/06/21 00:04:16;;;;;;;1.38;1.20;;;24.80;60.50;;;;;;5032670;28;20391;-45
2021/06/21 00:06:42;;;;;;;1.42;0.80;;;24.60;60.40;;;;;;5032808;28;20040;-45
2021/06/21 00:09:08;;;;;;;1.75;1.15;;;24.80;60.60;;;;;;5032454;28;20029;-45
2021/06/21 00:11:34;;;;;;;1.38;1.05;;;24.80;60.60;;;;;;5031723;28;20026;-45
2021/06/21 00:13:59;;;;;;;1.20;1.10;;;24.50;60.40;;;;;;5032215;28;20028;-45
2021/06/21 00:16:25;;;;;;;1.40;0.90;;;24.40;60.40;;;;;;5032579;28;20033;-44
2021/06/21 00:18:51;;;;;;;1.52;1.00;;;24.50;60.40;;;;;;5032947;28;20025;-45
2021/06/21 00:21:17;;;;;;;1.42;1.23;;;24.70;60.50;;;;;;5032454;28;20026;-45
2021/06/21 00:23:42;;;;;;;1.88;1.08;;;24.50;60.40;;;;;;5032454;28;20097;-44
2021/06/21 00:26:08;;;;;;;2.08;1.40;;;24.80;60.50;;;;;;5032863;28;20045;-45
2021/06/21 00:28:34;;;;;;;1.20;1.10;;;24.50;60.30;;;;;;5032648;28;20120;-45
2021/06/21 00:31:00;;;;;;;1.95;0.90;;;24.40;60.30;;;;;;5032592;28;20071;-44
2021/06/21 00:33:25;;;;;;;2.00;1.10;;;24.50;60.40;;;;;;5032791;28;20025;-44
2021/06/21 00:35:51;;;;;;;2.22;1.13;;;24.40;60.30;;;;;;5032396;28;20230;-45
2021/06/21 00:38:17;;;;;;;1.17;0.80;;;24.40;60.30;;;;;;5032502;28;20017;-46
2021/06/21 00:40:42;;;;;;;1.42;1.25;;;24.70;80.20;;;;;;5032437;28;20029;-45
2021/06/21 00:43:08;;;;;;;1.10;1.00;;;24.40;60.30;;;;;;5032403;28;20072;-46
2021/06/21 00:45:34;;;;;;;2.38;1.10;;;24.40;61.00;;;;;;5032694;28;20049;-46
2021/06/21 00:47:59;;;;;;;1.75;1.10;;;24.40;60.30;;;;;;5032710;28;20560;-46
2021/06/21 00:50:28;;;;;;;1.75;1.10;;;24.40;60.30;;;;;;5032373;28;20079;-45
2021/06/21 00:52:55;;;;;;;1.35;1.00;;;24.40;60.30;;;;;;5032298;28;20032;-44
2021/06/21 00:55:22;;;;;;;1.33;0.80;;;24.10;60.10;;;;;;5032384;28;20399;-46
2021/06/21 00:57:48;;;;;;;0.88;0.88;;;24.40;60.30;;;;;;5032611;28;20113;-45
2021/06/21 01:00:16;;;;;;;1.65;0.95;;;24.10;60.10;;;;;;5032485;28;20468;-46
2021/06/21 01:02:43;;;;;;;3.25;1.10;;;24.30;60.20;;;;;;5032396;28;20379;-46
2021/06/21 01:05:15;;;;;;;1.10;1.00;;;24.10;60.10;;;;;;5031970;28;20115;-45
2021/06/21 01:07:41;;;;;;;2.60;1.30;;;24.40;60.30;;;;;;5032582;28;20439;-45
2021/06/21 01:10:09;;;;;;;3.13;1.05;;;24.20;60.20;;;;;;5032114;28;20430;-45
2021/06/21 01:12:46;;;;;;;1.20;0.90;;;24.30;60.20;;;;;;5032443;28;20029;-45
2021/06/21 01:15:23;;;;;;;1.50;0.60;;;24.30;60.10;;;;;;5032041;28;20026;-44
2021/06/21 01:18:00;;;;;;;1.92;0.90;;;24.30;60.10;;;;;;5032523;28;20033;-45
2021/06/21 01:21:10;;;;;;;1.40;1.02;;;24.50;60.20;;;;;;5032167;28;20014;-45
2021/06/21 01:23:42;;;;;;;1.10;1.00;;;24.30;60.20;;;;;;4952836;28;20179;-45
2021/06/21 01:26:07;;;;;;;1.52;0.93;;;24.30;60.10;;;;;;4955221;29;20051;-46
2021/06/21 01:28:42;;;;;;;1.45;0.90;;;24.10;60.00;;;;;;4998527;28;20501;-47
2021/06/21 01:31:14;;;;;;;1.38;0.80;;;24.50;60.30;;;;;;5035400;28;20037;-44
2021/06/21 01:33:41;;;;;;;2.20;1.00;;;24.30;60.20;;;;;;5035753;28;20097;-45
2021/06/21 01:36:09;;;;;;;1.52;0.93;;;24.00;60.00;;;;;;5035278;28;20124;-46
2021/06/21 01:38:42;;;;;;;4.80;0.90;;;24.20;60.10;;;;;;5035532;28;20032;-45
2021/06/21 01:41:14;;;;;;;1.52;0.98;;;24.10;60.00;;;;;;5035279;28;20037;-46
2021/06/21 01:43:42;;;;;;;1.88;1.13;;;24.20;60.00;;;;;;5034049;28;20059;-45
2021/06/21 01:46:14;;;;;;;1.20;0.75;;;24.20;60.00;;;;;;5035284;28;20024;-46
2021/06/21 01:48:45;;;;;;;1.90;0.90;;;24.00;59.90;;;;;;5035154;28;20025;-46
2021/06/21 01:51:12;;;;;;;1.50;0.95;;;24.20;59.90;;;;;;5035296;28;20392;-45
2021/06/21 01:53:39;;;;;;;1.45;0.80;;;24.40;60.00;;;;;;5035102;28;20021;-46
2021/06/21 01:56:14;;;;;;;1.20;0.80;;;24.20;60.00;;;;;;5035336;28;20025;-45
2021/06/21 01:58:41;;;;;;;1.95;0.93;;;24.20;60.00;;;;;;5035429;28;20391;-46
2021/06/21 02:01:15;;;;;;;2.33;0.80;;;24.20;60.00;;;;;;5034874;28;20036;-45
2021/06/21 02:03:45;;;;;;;1.70;0.80;;;24.10;59.90;;;;;;5034854;28;20408;-45
2021/06/21 02:06:11;;;;;;;1.20;0.93;;;24.10;59.90;;;;;;5035194;28;20022;-44
2021/06/21 02:08:38;;;;;;;1.95;0.90;;;24.20;60.00;;;;;;5035011;28;20033;-45
2021/06/21 02:11:05;;;;;;;3.22;1.15;;;23.90;59.80;;;;;;5035029;28;20048;-45
2021/06/21 02:13:33;;;;;;;1.08;1.00;;;23.90;59.90;;;;;;5035009;28;20448;-45
2021/06/21 02:16:00;;;;;;;0.93;0.77;;;24.10;59.90;;;;;;5034639;28;20030;-44
2021/06/21 02:18:26;;;;;;;1.45;0.90;;;24.40;60.00;;;;;;5034552;28;20017;-45
2021/06/21 02:20:53;;;;;;;1.35;1.02;;;24.00;59.90;;;;;;5034671;28;20021;-45
2021/06/21 02:23:22;;;;;;;1.88;0.85;;;24.40;60.10;;;;;;5034501;28;20022;-45
2021/06/21 02:25:49;;;;;;;1.02;0.90;;;24.10;59.90;;;;;;5034431;28;20068;-45
2021/06/21 02:28:18;;;;;;;1.30;1.10;;;24.20;59.90;;;;;;5034436;28;20036;-46
2021/06/21 02:30:44;;;;;;;1.92;0.90;;;24.10;59.90;;;;;;5034640;28;20387;-45
2021/06/21 02:33:12;;;;;;;0.98;0.82;;;24.20;60.00;;;;;;5034526;28;20018;-44
2021/06/21 02:35:38;;;;;;;1.65;0.90;;;23.90;59.90;;;;;;5032311;28;20399;-47
2021/06/21 02:38:03;;;;;;;2.72;1.00;;;24.40;60.10;;;;;;5034302;28;20100;-45
2021/06/21 02:40:29;;;;;;;1.50;0.93;;;24.00;59.90;;;;;;5034119;28;20103;-45
2021/06/21 02:42:54;;;;;;;1.00;0.90;;;24.10;59.90;;;;;;5034325;28;20065;-44
2021/06/21 02:45:20;;;;;;;2.00;0.95;;;24.10;59.90;;;;;;5033968;28;20045;-45
2021/06/21 02:47:46;;;;;;;0.90;0.90;;;23.90;59.90;;;;;;5034017;28;20022;-45
2021/06/21 02:50:13;;;;;;;1.02;0.90;;;24.00;59.90;;;;;;5034047;28;20017;-46
2021/06/21 02:52:39;;;;;;;1.52;0.85;;;24.00;59.90;;;;;;5033902;28;20154;-45
2021/06/21 02:55:08;;;;;;;2.28;0.55;;;24.10;59.90;;;;;;5033790;28;20025;-45
2021/06/21 02:57:57;;;;;;;0.80;0.80;;;24.00;59.80;;;;;;5034128;28;20472;-45
2021/06/21 03:00:23;;;;;;;0.82;0.82;;;24.20;60.00;;;;;;5016376;28;20037;-45
2021/06/21 03:02:49;;;;;;;1.15;0.80;;;24.00;59.90;;;;;;5033748;28;20018;-44
2021/06/21 03:05:17;;;;;;;0.93;0.90;;;24.10;59.90;;;;;;5033744;28;20123;-44
2021/06/21 03:07:45;;;;;;;1.98;1.40;;;23.90;59.90;;;;;;5033561;28;20025;-45
2021/06/21 03:10:13;;;;;;;0.98;0.88;;;24.00;59.90;;;;;;5033659;28;20049;-44
2021/06/21 03:12:41;;;;;;;1.20;0.85;;;24.00;60.50;;;;;;5032639;28;20030;-45
2021/06/21 03:15:07;;;;;;;2.00;1.08;;;24.10;60.00;;;;;;5033718;28;20112;-45
2021/06/21 03:17:38;;;;;;;1.25;1.10;;;24.00;59.90;;;;;;5033499;28;20064;-44
2021/06/21 03:20:05;;;;;;;1.55;0.85;;;23.80;59.80;;;;;;5033767;28;20381;-46
2021/06/21 03:22:31;;;;;;;2.03;1.23;;;23.90;59.80;;;;;;5033419;28;20543;-45
2021/06/21 03:24:56;;;;;;;1.60;1.10;;;23.90;59.90;;;;;;5033865;28;20025;-45
2021/06/21 03:27:33;;;;;;;1.77;1.00;;;23.70;59.70;;;;;;5033104;28;20032;-45
2021/06/21 03:29:59;;;;;;;1.13;0.95;;;23.90;59.90;;;;;;5033646;28;20036;-45
2021/06/21 03:32:28;;;;;;;1.02;0.90;;;23.70;59.70;;;;;;5033605;28;20021;-45
2021/06/21 03:34:56;;;;;;;1.80;1.07;;;23.70;59.70;;;;;;5033066;28;20026;-45
2021/06/21 03:37:22;;;;;;;1.10;0.77;;;23.90;59.80;;;;;;5033378;28;20369;-46
2021/06/21 03:39:47;;;;;;;1.88;0.90;;;24.10;59.90;;;;;;5033269;28;20163;-45
2021/06/21 03:42:13;;;;;;;2.22;1.25;;;23.90;59.80;;;;;;5033427;28;20028;-45
2021/06/21 03:44:39;;;;;;;1.90;1.10;;;23.70;59.70;;;;;;5033322;28;20032;-45
2021/06/21 03:47:04;;;;;;;2.08;0.90;;;23.80;59.80;;;;;;5032682;28;20056;-45
2021/06/21 03:49:31;;;;;;;1.50;0.80;;;23.80;59.80;;;;;;5033192;28;20025;-45
2021/06/21 03:51:56;;;;;;;1.55;0.95;;;23.80;59.80;;;;;;5033138;28;20020;-44
2021/06/21 03:54:22;;;;;;;1.40;1.25;;;23.80;59.80;;;;;;5033200;28;20025;-45
2021/06/21 03:56:47;;;;;;;1.00;0.90;;;24.10;60.00;;;;;;5032695;28;20069;-45
2021/06/21 03:59:13;;;;;;;1.75;1.10;;;24.10;60.00;;;;;;5033102;28;20017;-46
2021/06/21 04:01:39;;;;;;;1.00;0.98;;;23.80;59.80;;;;;;5031793;28;20029;-46
2021/06/21 04:04:05;;;;;;;0.77;0.77;;;24.10;60.00;;;;;;5032387;28;20052;-45
2021/06/21 04:06:31;;;;;;;1.10;0.80;;;23.80;59.80;;;;;;5033133;28;20032;-46
2021/06/21 04:08:56;;;;;;;1.55;0.93;;;23.60;59.70;;;;;;5032912;28;20021;-45
2021/06/21 04:11:26;;;;;;;1.45;0.90;;;23.80;59.80;;;;;;5032833;28;20495;-45
2021/06/21 04:13:52;;;;;;;1.60;0.97;;;23.60;59.70;;;;;;5032929;28;20083;-45
2021/06/21 04:16:18;;;;;;;1.55;0.82;;;23.70;59.80;;;;;;5032818;28;20029;-46
2021/06/21 04:18:44;;;;;;;1.50;1.27;;;23.80;59.80;;;;;;5032797;28;20021;-45
2021/06/21 04:21:09;;;;;;;1.35;0.77;;;23.70;59.80;;;;;;5032688;28;20030;-45
2021/06/21 04:23:35;;;;;;;1.20;1.10;;;23.80;59.90;;;;;;5032804;28;20507;-45
2021/06/21 04:26:00;;;;;;;4.53;1.17;;;23.60;59.80;;;;;;5032495;28;20108;-46
2021/06/21 04:28:26;;;;;;;1.13;1.00;;;23.50;59.70;;;;;;5032466;28;20018;-46
2021/06/21 04:30:51;;;;;;;1.50;0.80;;;23.80;59.90;;;;;;5032345;28;20029;-46
2021/06/21 04:33:17;;;;;;;1.30;0.90;;;23.90;60.00;;;;;;5032486;28;20022;-45
2021/06/21 04:35:43;;;;;;;1.55;0.80;;;23.70;59.80;;;;;;5032571;28;20191;-45
2021/06/21 04:38:08;;;;;;;0.95;0.80;;;23.70;59.90;;;;;;5032796;28;20117;-45
2021/06/21 04:40:35;;;;;;;1.80;1.10;;;23.80;59.90;;;;;;5032624;28;20021;-44
2021/06/21 04:43:01;;;;;;;1.15;1.00;;;23.40;59.70;;;;;;5032444;28;20100;-45
2021/06/21 04:45:27;;;;;;;2.33;1.10;;;23.50;59.80;;;;;;5032293;28;20060;-45
2021/06/21 04:47:53;;;;;;;1.50;0.80;;;23.70;59.90;;;;;;5032622;28;20017;-45
2021/06/21 04:50:19;;;;;;;0.88;0.82;;;23.50;59.90;;;;;;5032456;28;20028;-45
2021/06/21 04:52:47;;;;;;;0.90;0.90;;;23.50;59.80;;;;;;5032511;28;20030;-46
2021/06/21 04:55:14;;;;;;;1.45;0.88;;;23.60;59.80;;;;;;5032548;28;20447;-45
2021/06/21 04:57:39;;;;;;;1.67;1.08;;;23.70;59.90;;;;;;5032418;28;20029;-45
2021/06/21 05:00:11;;;;;;;1.10;1.00;;;23.70;59.90;;;;;;5036036;28;20100;-46
2021/06/21 05:02:38;;;;;;;1.33;1.02;;;23.70;59.90;;;;;;5036230;28;20096;-47
2021/06/21 05:05:04;;;;;;;1.45;0.90;;;23.70;59.90;;;;;;5035897;28;20046;-47
2021/06/21 05:07:29;;;;;;;1.40;0.90;;;23.70;60.00;;;;;;5035888;28;20045;-46
2021/06/21 05:09:55;;;;;;;1.73;0.98;;;23.70;59.90;;;;;;5035932;28;20164;-47
2021/06/21 05:12:20;;;;;;;1.88;0.60;;;23.60;59.90;;;;;;5036073;28;20025;-46
2021/06/21 05:14:46;;;;;;;1.92;1.05;;;23.70;59.90;;;;;;5036002;28;20022;-45
2021/06/21 05:17:12;;;;;;;1.20;0.88;;;23.40;59.80;;;;;;5035729;28;20033;-45
2021/06/21 05:19:39;;;;;;;0.75;0.75;;;23.60;59.90;;;;;;5035946;28;20093;-46
2021/06/21 05:22:05;;;;;;;2.70;0.80;;;23.50;59.90;;;;;;5035899;28;20119;-45
2021/06/21 05:24:32;;;;;;;1.13;0.80;;;23.40;59.90;;;;;;5035488;28;20025;-45
2021/06/21 05:26:57;;;;;;;1.77;0.90;;;23.70;60.00;;;;;;5035398;28;20531;-45
2021/06/21 05:29:23;;;;;;;1.58;1.00;;;23.60;60.00;;;;;;5035599;28;20025;-48
2021/06/21 05:31:49;;;;;;;1.92;1.00;;;24.00;60.30;;;;;;5035571;28;20029;-46
2021/06/21 05:34:15;;;;;;;1.00;0.82;;;23.40;59.90;;;;;;5035299;28;20017;-46
2021/06/21 05:36:40;;;;;;;2.45;1.08;;;23.40;59.90;;;;;;5034877;28;20029;-46
2021/06/21 05:39:07;;;;;;;0.90;0.60;;;23.40;59.90;;;;;;5035446;28;20029;-46
2021/06/21 05:41:32;;;;;;;1.15;0.73;;;23.90;60.30;;;;;;5035671;28;20033;-46
2021/06/21 05:43:58;;;;;;;1.73;0.95;;;23.30;60.00;;;;;;5035218;28;20025;-46
2021/06/21 05:46:24;;;;;;;1.20;0.88;;;23.60;60.10;;;;;;5035234;28;20017;-46
2021/06/21 05:48:49;;;;;;;0.80;0.60;;;23.60;60.20;;;;;;5035316;28;20430;-47
2021/06/21 05:51:15;;;;;;;1.50;0.82;;;23.40;60.00;;;;;;5035399;28;20468;-47
2021/06/21 05:53:40;;;;;;;0.80;0.70;;;23.60;60.10;;;;;;5035303;28;20025;-46
2021/06/21 05:56:06;;;;;;;1.52;0.90;;;23.40;60.00;;;;;;5034925;28;20484;-46
2021/06/21 05:58:32;;;;;;;2.90;0.80;;;23.40;60.00;;;;;;5034793;28;20032;-44
2021/06/21 06:00:57;;;;;;;3.00;0.90;;;23.60;60.10;;;;;;5035129;28;20021;-46
2021/06/21 06:03:23;;;;;;;1.15;0.80;;;23.60;60.10;;;;;;5034663;28;20057;-45
2021/06/21 06:05:49;;;;;;;1.20;0.80;;;23.70;60.10;;;;;;5035001;28;20049;-45
2021/06/21 06:08:15;;;;;;;1.90;0.70;;;23.70;60.10;;;;;;5034756;28;20021;-45
2021/06/21 06:10:41;;;;;;;1.77;1.05;;;23.30;60.00;;;;;;5034771;28;20448;-45
2021/06/21 06:13:08;;;;;;;1.63;0.60;;;23.50;60.10;;;;;;5035016;28;20064;-45
2021/06/21 06:15:33;;;;;;;2.13;1.08;;;23.60;60.20;;;;;;5034712;28;20029;-47
2021/06/21 06:17:59;;;;;;;3.95;0.80;;;23.50;60.20;;;;;;5035044;28;20383;-46
2021/06/21 06:20:25;;;;;;;1.63;0.93;;;23.50;60.20;;;;;;5033390;28;20030;-46
2021/06/21 06:22:50;;;;;;;0.88;0.70;;;23.30;60.10;;;;;;5034921;28;20104;-46
2021/06/21 06:25:16;;;;;;;2.83;0.88;;;23.30;60.20;;;;;;5034443;28;20021;-45
2021/06/21 06:27:42;;;;;;;0.90;0.60;;;23.70;60.30;;;;;;5034475;28;20017;-46
2021/06/21 06:30:09;;;;;;;0.68;0.68;;;23.90;60.50;;;;;;5034744;28;20066;-46
2021/06/21 06:32:35;;;;;;;0.60;0.60;;;23.50;60.30;;;;;;5034511;28;20018;-45
2021/06/21 06:35:05;;;;;;;4.43;0.70;;;23.90;60.40;;;;;;5034313;28;20510;-45
2021/06/21 06:37:30;;;;;;;1.47;0.63;;;23.50;60.20;;;;;;5034627;28;20101;-44
2021/06/21 06:39:56;;;;;;;4.68;0.70;;;23.50;60.40;;;;;;5034433;28;20794;-45
2021/06/21 06:42:22;;;;;;;1.83;0.80;;;23.50;60.50;;;;;;5034175;28;20091;-44
2021/06/21 06:44:48;;;;;;;0.82;0.60;;;23.90;60.50;;;;;;5033883;28;20495;-45
2021/06/21 06:47:14;;;;;;;3.88;0.60;;;23.40;60.10;;;;;;5034370;28;20025;-44
2021/06/21 06:49:39;;;;;;;2.45;0.73;;;23.30;60.00;;;;;;5033172;28;20021;-47
2021/06/21 06:52:06;;;;;;;2.58;0.60;;;23.40;60.10;;;;;;5034071;28;20361;-45
2021/06/21 06:56:57;;;;;;;1.15;0.65;;;23.50;60.30;;;;;;5034082;28;20022;-44
2021/06/21 06:57:36;;;;;;;1.83;0.60;;;23.60;60.30;;;;;;5033805;28;20136;-46
2021/06/21 07:00:05;;;;;;;1.05;0.60;;;23.50;60.20;;;;;;5034129;28;20026;-45
2021/06/21 07:02:30;;;;;;;4.13;1.00;;;23.50;60.20;;;;;;5033697;28;20018;-46
2021/06/21 07:04:56;;;;;;;1.20;0.60;;;23.50;60.10;;;;;;5033517;28;20423;-46
2021/06/21 07:07:22;;;;;;;0.68;0.43;;;23.90;60.20;;;;;;5033977;28;20116;-45
2021/06/21 07:09:48;;;;;;;0.88;0.40;;;23.40;60.00;;;;;;5033885;28;20022;-46
2021/06/21 07:12:13;;;;;;;1.15;0.52;;;23.50;60.00;;;;;;5033997;28;20079;-45
2021/06/21 07:14:39;;;;;;;2.63;0.75;;;23.50;60.20;;;;;;5032289;28;20045;-45
2021/06/21 07:17:05;;;;;;;4.43;0.60;;;23.50;60.10;;;;;;5033883;28;20026;-46
2021/06/21 07:19:31;;;;;;;0.70;0.50;;;23.50;60.10;;;;;;5033492;28;20045;-45
2021/06/21 07:21:56;;;;;;;1.25;0.60;;;23.50;60.20;;;;;;5033339;28;20017;-46
2021/06/21 07:24:23;;;;;;;1.48;0.50;;;23.70;60.20;;;;;;5032238;28;20476;-46
2021/06/21 07:26:49;;;;;;;0.88;0.70;;;23.20;59.90;;;;;;5033716;28;20033;-47
2021/06/21 07:29:16;;;;;;;0.82;0.43;;;23.50;60.00;;;;;;5033393;28;20028;-46
2021/06/21 07:31:42;;;;;;;1.35;0.57;;;23.50;60.00;;;;;;5033596;28;20056;-46
2021/06/21 07:34:08;;;;;;;1.45;0.63;;;23.30;59.90;;;;;;5033350;28;20013;-45
2021/06/21 07:36:33;;;;;;;2.58;0.65;;;23.40;59.90;;;;;;5033540;28;20200;-46
2021/06/21 07:38:59;;;;;;;0.88;0.40;;;23.50;60.00;;;;;;5033276;28;20068;-48
2021/06/21 07:41:25;;;;;;;0.98;0.60;;;23.50;60.00;;;;;;5032006;28;20048;-46
2021/06/21 07:43:51;;;;;;;1.95;0.60;;;23.50;60.00;;;;;;5033155;28;20151;-46
2021/06/21 07:46:17;;;;;;;1.88;0.60;;;23.30;60.50;;;;;;5033531;28;20024;-46
2021/06/21 07:48:43;;;;;;;1.10;0.63;;;23.50;59.90;;;;;;5033552;28;20033;-46
2021/06/21 07:51:14;;;;;;;1.10;0.50;;;23.50;59.90;;;;;;5033363;28;20018;-46
2021/06/21 07:53:40;;;;;;;2.75;0.60;;;23.60;59.90;;;;;;5033071;28;20091;-46
2021/06/21 07:56:06;;;;;;;1.65;0.70;;;23.50;59.90;;;;;;5033132;28;20040;-46
2021/06/21 07:58:33;;;;;;;1.17;0.50;;;23.50;59.90;;;;;;5033284;28;20083;-46
2021/06/21 08:00:59;;;;;;;2.20;0.50;;;23.40;59.90;;;;;;5032964;28;20021;-46
2021/06/21 08:03:24;;;;;;;2.15;0.57;;;23.60;60.00;;;;;;5032859;28;20129;-46
2021/06/21 08:05:50;;;;;;;1.27;0.60;;;23.40;59.90;;;;;;5033371;28;20109;-46
2021/06/21 08:08:17;;;;;;;0.90;0.50;;;23.20;59.80;;;;;;5033045;28;20026;-47
2021/06/21 08:10:43;;;;;;;0.45;0.43;;;23.20;59.80;;;;;;5033132;28;20387;-46
2021/06/21 08:13:08;;;;;;;0.65;0.50;;;23.40;59.90;;;;;;5031845;28;20018;-46
2021/06/21 08:15:34;;;;;;;3.95;0.70;;;23.40;59.90;;;;;;5033047;28;20037;-47
2021/06/21 08:18:00;;;;;;;3.33;0.85;;;23.50;60.00;;;;;;5032808;28;20049;-46
2021/06/21 08:20:26;;;;;;;0.63;0.38;;;23.80;60.20;;;;;;5033014;28;20017;-46
2021/06/21 08:22:51;;;;;;;1.33;0.32;;;23.40;60.00;;;;;;5032905;28;20033;-46
2021/06/21 08:25:17;;;;;;;1.40;0.60;;;23.40;60.00;;;;;;5032932;28;20629;-47
2021/06/21 08:27:43;;;;;;;0.63;0.50;;;23.20;60.10;;;;;;5032931;28;20321;-47
2021/06/21 08:30:09;;;;;;;1.70;0.68;;;23.40;60.30;;;;;;5032899;28;20484;-47
2021/06/21 08:32:35;;;;;;;2.70;0.85;;;23.40;60.20;;;;;;5032982;28;20029;-46
2021/06/21 08:35:01;;;;;;;2.05;0.70;;;23.40;60.30;;;;;;5036541;28;20028;-45
2021/06/21 08:37:27;;;;;;;0.90;0.50;;;23.40;60.30;;;;;;5036954;28;20029;-46
2021/06/21 08:39:52;;;;;;;0.60;0.60;;;23.30;60.10;;;;;;5036876;28;20048;-46
2021/06/21 08:42:21;;;;;;;1.05;0.70;;;23.10;59.90;;;;;;5036657;28;20099;-46
2021/06/21 08:44:47;;;;;;;2.15;0.50;;;23.40;60.00;;;;;;5036483;28;20021;-45
2021/06/21 08:47:17;;;;;;;2.28;0.47;;;23.40;59.90;;;;;;5036753;28;20028;-49
2021/06/21 08:49:47;;;;;;;0.77;0.68;;;23.40;59.80;;;;;;5036542;28;20018;-46
2021/06/21 08:52:14;;;;;;;1.20;0.57;;;23.40;59.80;;;;;;5036676;28;20383;-46
2021/06/21 08:54:40;;;;;;;1.08;0.47;;;23.20;59.80;;;;;;5036291;28;20025;-46
2021/06/21 08:57:06;;;;;;;0.98;0.50;;;23.70;60.00;;;;;;5036430;28;20112;-47
2021/06/21 08:59:32;;;;;;;0.60;0.43;;;23.40;59.80;;;;;;5036185;28;20510;-45
2021/06/21 09:01:58;;;;;;;0.90;0.57;;;23.40;59.90;;;;;;5036338;28;20021;-46
2021/06/21 09:04:24;;;;;;;1.50;0.63;;;23.40;60.10;;;;;;5035118;28;20124;-46
2021/06/21 09:06:50;;;;;;;2.05;0.43;;;23.30;60.00;;;;;;5035005;28;20092;-45
2021/06/21 09:09:16;;;;;;;1.75;0.85;;;23.30;60.00;;;;;;5033651;28;20483;-46
2021/06/21 09:11:49;;;;;;;1.10;0.50;;;23.40;60.00;;;;;;5034927;28;20025;-46
2021/06/21 09:14:29;;;;;;;1.60;0.73;;;23.70;60.10;;;;;;5034843;28;20028;-45
2021/06/21 09:16:56;;;;;;;1.42;0.50;;;23.30;60.00;;;;;;5034389;28;20076;-45
2021/06/21 09:19:22;;;;;;;2.20;0.50;;;23.20;60.00;;;;;;5033300;28;20395;-45
2021/06/21 09:21:48;;;;;;;2.00;0.80;;;23.30;60.00;;;;;;5034356;28;20096;-45
2021/06/21 09:24:19;;;;;;;3.45;0.52;;;23.70;60.30;;;;;;5034429;28;20407;-46
2021/06/21 09:26:47;;;;;;;0.80;0.50;;;23.30;60.10;;;;;;5034634;28;20025;-47
2021/06/21 09:29:13;;;;;;;2.08;0.60;;;23.40;60.30;;;;;;5034217;28;20029;-46
2021/06/21 09:31:54;;;;;;;0.82;0.60;;;23.10;60.00;;;;;;5034412;28;20037;-46
2021/06/21 09:34:20;;;;;;;;;;;23.30;60.10;;;;;;5034723;28;20500;-47
2021/06/21 09:36:46;;;;;;;1.60;0.40;;;23.40;60.10;;;;;;5033024;28;19917;-46
2021/06/21 09:39:15;;;;;;;4.13;0.60;;;23.40;60.20;;;;;;5034103;28;20030;-46
2021/06/21 09:41:41;;;;;;;5.82;0.70;;;23.40;60.20;;;;;;5034557;28;20026;-46
2021/06/21 09:44:07;;;;;;;1.75;0.60;;;23.30;60.20;;;;;;5033969;28;20024;-45
2021/06/21 09:46:33;;;;;;;3.15;0.70;;;23.40;60.20;;;;;;5032743;28;20063;-46
2021/06/21 09:48:58;;;;;;;0.82;0.43;;;23.30;60.20;;;;;;5033948;28;20492;-45
2021/06/21 09:51:30;;;;;;;1.35;0.70;;;23.40;60.30;;;;;;5033980;28;20029;-44
2021/06/21 09:53:57;;;;;;;0.80;0.52;;;23.30;60.40;;;;;;5034284;28;20033;-46
2021/06/21 09:56:40;;;;;;;3.20;0.80;;;23.30;60.20;;;;;;5034055;28;20103;-45
2021/06/21 09:59:29;;;;;;;1.58;0.60;;;23.30;60.40;;;;;;5034360;28;20045;-45
2021/06/21 10:02:17;;;;;;;3.03;0.57;;;23.30;60.50;;;;;;5033894;28;20018;-45
2021/06/21 10:04:44;;;;;;;1.50;0.55;;;23.50;60.70;;;;;;5027149;28;163016;-46
2021/06/21 10:07:36;;;;;;;2.97;0.60;;;23.40;60.80;;;;;;5035172;28;20029;-46
2021/06/21 10:10:14;;;;;;;0.57;0.40;;;23.40;60.60;;;;;;5034905;28;20026;-47
2021/06/21 10:12:40;;;;;;;1.48;0.60;;;23.40;60.60;;;;;;5035051;28;20026;-45
2021/06/21 10:15:08;;;;;;;2.33;0.68;;;23.30;60.40;;;;;;5035344;28;20038;-45
2021/06/21 10:17:34;;;;;;;0.77;0.52;;;23.40;60.30;;;;;;5035023;28;20036;-46
2021/06/21 10:20:00;;;;;;;1.15;0.60;;;23.30;60.20;;;;;;5034876;28;20025;-46
2021/06/21 10:22:27;;;;;;;1.08;0.52;;;23.40;60.30;;;;;;5034740;28;20399;-46
2021/06/21 10:24:56;;;;;;;0.85;0.60;;;23.70;60.40;;;;;;5034620;28;20013;-45
2021/06/21 10:27:23;;;;;;;0.85;0.77;;;23.20;60.10;;;;;;5034778;28;20029;-45
2021/06/21 10:29:49;;;;;;;0.77;0.40;;;23.30;60.20;;;;;;5034805;28;20017;-46
2021/06/21 10:32:16;;;;;;;1.70;0.40;;;23.40;60.10;;;;;;5034681;28;20026;-45
2021/06/21 10:34:42;;;;;;;1.48;0.55;;;23.60;60.30;;;;;;5034367;28;20025;-45
2021/06/21 10:37:22;;;;;;;1.10;0.70;;;23.10;60.00;;;;;;5034611;28;20041;-45
2021/06/21 10:39:52;;;;;;;0.52;0.30;;;23.30;60.10;;;;;;5034679;28;20071;-46
2021/06/21 10:42:27;;;;;;;3.60;0.57;;;23.30;60.40;;;;;;5034167;28;20060;-45
2021/06/21 10:45:00;;;;;;;2.35;0.60;;;23.30;61.00;;;;;;5034399;28;20029;-46
2021/06/21 10:47:34;;;;;;;0.85;0.60;;;23.00;61.70;;;;;;5034403;28;20041;-45
2021/06/21 10:50:04;;;;;;;2.95;0.57;;;23.30;62.50;;;;;;5034105;28;20029;-46
2021/06/21 10:52:40;;;;;;;1.15;0.90;;;23.00;62.60;;;;;;5034342;28;20017;-45
2021/06/21 10:55:27;;;;;;;1.17;0.57;;;23.20;62.70;;;;;;5034121;28;20017;-46
2021/06/21 10:58:02;;;;;;;1.20;0.50;;;23.20;63.30;;;;;;5033872;28;20432;-46
2021/06/21 11:00:42;;;;;;;1.10;0.52;;;23.10;62.50;;;;;;5034103;28;20029;-45
2021/06/21 11:03:23;;;;;;;2.05;0.70;;;23.00;62.80;;;;;;5034108;28;20042;-46
2021/06/21 11:05:51;;;;;;;0.98;0.65;;;23.00;62.70;;;;;;5033987;28;20076;-45
2021/06/21 11:08:24;;;;;;;0.63;0.40;;;23.50;63.20;;;;;;5034033;28;20529;-45
2021/06/21 11:10:55;;;;;;;1.15;0.52;;;23.20;62.90;;;;;;5033999;28;20028;-45
2021/06/21 11:13:34;;;;;;;1.30;0.40;;;23.20;62.80;;;;;;5034011;28;20476;-46
2021/06/21 11:16:14;;;;;;;0.77;0.50;;;23.20;62.80;;;;;;5033758;28;20424;-45
2021/06/21 11:18:40;;;;;;;2.05;0.30;;;23.30;62.80;;;;;;5033426;28;20035;-45
2021/06/21 11:21:22;;;;;;;0.70;0.30;;;23.20;63.00;;;;;;5033619;28;20021;-46
2021/06/21 11:23:50;;;;;;;0.60;0.50;;;23.00;62.60;;;;;;5033448;28;20025;-46
2021/06/21 11:26:16;;;;;;;0.45;0.30;;;23.20;62.70;;;;;;5033113;28;20034;-45
2021/06/21 11:28:46;;;;;;;0.73;0.40;;;23.20;62.60;;;;;;5033249;28;20079;-46
2021/06/21 11:31:21;;;;;;;0.85;0.40;;;23.30;63.00;;;;;;5033221;28;20529;-46
2021/06/21 11:33:58;;;;;;;2.33;0.50;;;23.30;62.80;;;;;;5033266;28;20029;-45
2021/06/21 11:36:42;;;;;;;1.02;0.40;;;23.30;63.00;;;;;;5033340;28;20030;-45
2021/06/21 11:39:20;;;;;;;3.25;0.73;;;23.30;62.90;;;;;;5033162;28;20116;-44
2021/06/21 11:41:56;;;;;;;0.45;0.35;;;23.30;62.90;;;;;;5033112;28;20575;-46
2021/06/21 11:44:39;;;;;;;1.65;0.55;;;23.20;63.00;;;;;;5033355;28;20045;-44
2021/06/21 11:47:31;;;;;;;0.90;0.40;;;23.40;63.10;;;;;;5033246;28;20026;-44
2021/06/21 11:50:08;;;;;;;0.80;0.40;;;23.30;63.00;;;;;;5033278;28;20025;-46
2021/06/21 11:52:34;;;;;;;1.75;0.40;;;23.30;62.90;;;;;;5032795;28;20498;-44
2021/06/21 11:55:15;;;;;;;0.60;0.38;;;23.70;63.00;;;;;;5032706;28;20116;-45
2021/06/21 11:57:42;;;;;;;0.32;0.30;;;23.30;62.70;;;;;;5033143;28;20025;-45
2021/06/21 12:00:08;;;;;;;0.40;0.40;;;23.30;62.60;;;;;;5033128;28;20112;-45
2021/06/21 12:02:34;;;;;;;1.05;0.38;;;23.40;62.50;;;;;;5032613;28;20026;-44
2021/06/21 12:05:10;;;;;;;3.15;0.50;;;23.40;62.40;;;;;;5032649;28;20049;-44
2021/06/21 12:07:38;;;;;;;0.47;0.32;;;23.40;62.30;;;;;;5032526;28;20537;-44
2021/06/21 12:10:08;;;;;;;0.50;0.30;;;23.40;62.30;;;;;;5032738;28;20048;-46
2021/06/21 12:12:35;;;;;;;0.85;0.38;;;23.40;62.20;;;;;;5032929;28;20105;-44
2021/06/21 12:15:06;;;;;;;0.40;0.28;;;23.40;62.20;;;;;;5032814;28;20079;-45
2021/06/21 12:17:32;;;;;;;1.23;0.35;;;23.40;62.10;;;;;;5032804;28;20484;-44
2021/06/21 12:20:15;;;;;;;0.22;0.22;;;23.40;62.00;;;;;;5032935;28;20021;-47
2021/06/21 12:22:51;;;;;;;0.32;0.30;;;23.40;61.90;;;;;;5031407;28;20365;-46
2021/06/21 12:25:25;;;;;;;0.40;0.28;;;23.40;61.80;;;;;;5032598;28;20056;-46
2021/06/21 12:27:52;;;;;;;1.35;0.45;;;23.60;61.80;;;;;;5032865;28;20044;-46
2021/06/21 12:30:44;;;;;;;0.50;0.20;;;23.50;61.60;;;;;;5032594;28;20516;-46
2021/06/21 12:33:41;;;;;;;0.20;0.20;;;23.20;61.30;;;;;;5032478;28;20034;-46
2021/06/21 12:36:16;;;;;;;0.20;0.20;;;23.40;61.30;;;;;;5016387;28;20460;-46
2021/06/21 12:38:55;;;;;;;0.77;0.20;;;23.50;61.20;;;;;;5031201;28;20040;-46
2021/06/21 12:41:26;;;;;;;0.73;0.32;;;23.80;61.30;;;;;;5032521;28;20032;-46
2021/06/21 12:44:07;;;;;;;0.20;0.20;;;23.40;60.90;;;;;;5031073;28;20021;-46
2021/06/21 12:46:35;;;;;;;0.40;0.40;;;23.40;60.80;;;;;;5032567;28;20021;-46
2021/06/21 12:49:05;;;;;;;0.63;0.40;;;23.50;60.70;;;;;;5032632;28;20185;-45
2021/06/21 12:51:32;;;;;;;0.30;0.30;;;23.40;60.50;;;;;;5032282;28;20583;-45
2021/06/21 12:53:59;;;;;;;0.63;0.30;;;23.40;60.40;;;;;;5032924;28;20029;-48
2021/06/21 12:56:34;;;;;;;0.30;0.20;;;23.50;60.30;;;;;;5032265;28;20033;-44